createdAt,value
2022-12-26T00:02:09.545Z,9.40
2022-12-26T00:04:49.739Z,9.40
2022-12-26T00:07:24.938Z,9.40
2022-12-26T00:09:56.792Z,9.30
2022-12-26T00:12:28.727Z,9.40
2022-12-26T00:15:00.761Z,9.50
2022-12-26T00:17:32.858Z,9.40
2022-12-26T00:20:05.374Z,9.40
2022-12-26T00:22:37.366Z,9.40
2022-12-26T00:25:10.847Z,9.50
2022-12-26T00:27:42.935Z,9.50
2022-12-26T00:30:15.129Z,9.50
2022-12-26T00:32:47.170Z,9.40
2022-12-26T00:35:19.101Z,9.50
2022-12-26T00:37:51.042Z,9.40
2022-12-26T00:40:23.831Z,9.40
2022-12-26T00:42:55.774Z,9.40
2022-12-26T00:45:27.725Z,9.40
2022-12-26T00:47:59.684Z,9.30
2022-12-26T00:50:34.890Z,9.40
2022-12-26T00:53:07.069Z,9.40
2022-12-26T00:55:39.243Z,9.40
2022-12-26T00:58:11.222Z,9.40
2022-12-26T01:00:43.265Z,9.40
2022-12-26T01:03:15.720Z,9.40
2022-12-26T01:05:51.943Z,9.40
2022-12-26T01:08:25.035Z,9.50
2022-12-26T01:10:57.133Z,9.40
2022-12-26T01:13:29.023Z,9.50
2022-12-26T01:16:01.460Z,9.40
2022-12-26T01:18:34.792Z,9.40
2022-12-26T01:21:10.222Z,9.40
2022-12-26T01:23:42.151Z,9.30
2022-12-26T01:26:17.736Z,9.20
2022-12-26T01:28:53.265Z,9.20
2022-12-26T01:31:25.249Z,9.30
2022-12-26T01:33:57.191Z,9.30
2022-12-26T01:36:29.076Z,9.30
2022-12-26T01:39:01.041Z,9.30
2022-12-26T01:41:33.368Z,9.40
2022-12-26T01:44:26.729Z,9.40
2022-12-26T01:46:58.929Z,9.30
2022-12-26T01:49:44.669Z,9.30
2022-12-26T01:52:27.879Z,9.20
2022-12-26T01:55:00.650Z,9.20
2022-12-26T01:57:42.539Z,9.10
2022-12-26T02:00:15.374Z,9.10
2022-12-26T02:03:07.260Z,9.00
2022-12-26T02:05:39.849Z,9.00
2022-12-26T02:08:16.571Z,9.00
2022-12-26T02:11:16.617Z,9.10
2022-12-26T02:13:48.856Z,9.10
2022-12-26T02:16:21.289Z,9.10
2022-12-26T02:18:53.235Z,9.10
2022-12-26T02:21:55.762Z,9.10
2022-12-26T02:24:41.056Z,9.20
2022-12-26T02:27:25.742Z,9.20
2022-12-26T02:30:07.140Z,9.20
2022-12-26T02:32:57.595Z,9.20
2022-12-26T02:35:35.778Z,9.20
2022-12-26T02:38:31.812Z,9.10
2022-12-26T02:41:11.586Z,9.10
2022-12-26T02:43:58.602Z,9.00
2022-12-26T02:47:13.436Z,9.00
2022-12-26T02:50:38.448Z,9.00
2022-12-26T02:53:39.672Z,9.00
2022-12-26T02:56:48.191Z,9.10
2022-12-26T02:59:57.232Z,9.00
2022-12-26T03:02:55.103Z,9.10
2022-12-26T03:05:54.078Z,9.10
2022-12-26T03:08:55.774Z,9.20
2022-12-26T03:11:49.274Z,9.10
2022-12-26T03:14:26.523Z,8.90
2022-12-26T03:17:20.967Z,8.80
2022-12-26T03:20:04.093Z,8.80
2022-12-26T03:22:42.216Z,8.90
2022-12-26T03:26:05.232Z,8.90
2022-12-26T03:28:37.788Z,8.90
2022-12-26T03:31:13.245Z,8.90
2022-12-26T03:34:05.464Z,9.00
2022-12-26T03:37:02.019Z,9.00
2022-12-26T03:39:58.719Z,9.10
2022-12-26T03:43:04.251Z,9.10
2022-12-26T03:46:10.763Z,9.10
2022-12-26T03:49:19.565Z,9.20
2022-12-26T03:52:15.905Z,9.20
2022-12-26T03:55:29.338Z,9.00
2022-12-26T03:58:25.341Z,8.90
2022-12-26T04:01:18.341Z,8.90
2022-12-26T04:04:10.520Z,8.90
2022-12-26T04:07:20.923Z,8.90
2022-12-26T04:10:28.018Z,8.90
2022-12-26T04:13:20.940Z,8.90
2022-12-26T04:16:20.361Z,8.80
2022-12-26T04:19:26.245Z,8.80
2022-12-26T04:22:32.656Z,8.80
2022-12-26T04:25:50.042Z,8.90
2022-12-26T04:28:38.230Z,8.90
2022-12-26T04:31:51.677Z,8.90
2022-12-26T04:34:56.009Z,8.90
2022-12-26T04:37:49.451Z,8.90
2022-12-26T04:40:47.533Z,8.90
2022-12-26T04:43:47.033Z,8.80
2022-12-26T04:46:24.771Z,8.90
2022-12-26T04:49:15.907Z,8.90
2022-12-26T04:51:48.548Z,8.90
2022-12-26T04:54:20.425Z,8.80
2022-12-26T04:56:52.726Z,8.80
2022-12-26T04:59:25.542Z,8.90
2022-12-26T05:02:16.084Z,8.80
2022-12-26T05:05:06.642Z,8.80
2022-12-26T05:07:57.218Z,8.80
2022-12-26T05:10:29.399Z,8.70
2022-12-26T05:13:01.367Z,8.70
2022-12-26T05:15:53.471Z,8.70
2022-12-26T05:18:43.834Z,8.60
2022-12-26T05:21:37.544Z,8.60
2022-12-26T05:24:36.738Z,8.60
2022-12-26T05:27:34.516Z,8.60
2022-12-26T05:30:07.896Z,8.70
2022-12-26T05:32:58.454Z,8.70
2022-12-26T05:35:30.467Z,8.60
2022-12-26T05:38:03.137Z,8.70
2022-12-26T05:40:36.179Z,8.70
2022-12-26T05:43:08.472Z,8.60
2022-12-26T05:45:40.400Z,8.50
2022-12-26T05:48:12.283Z,8.60
2022-12-26T05:50:44.282Z,8.60
2022-12-26T05:53:16.205Z,8.70
2022-12-26T05:55:48.098Z,8.60
2022-12-26T05:58:20.394Z,8.70
2022-12-26T06:00:52.301Z,8.70
2022-12-26T06:03:24.362Z,8.70
2022-12-26T06:05:57.672Z,8.60
2022-12-26T06:08:29.806Z,8.60
2022-12-26T06:11:09.466Z,8.60
2022-12-26T06:13:42.194Z,8.50
2022-12-26T06:16:16.410Z,8.60
2022-12-26T06:18:49.707Z,8.60
2022-12-26T06:21:22.479Z,8.70
2022-12-26T06:23:54.429Z,8.80
2022-12-26T06:26:26.779Z,8.80
2022-12-26T06:28:58.823Z,8.70
2022-12-26T06:31:30.898Z,8.70
2022-12-26T06:34:02.867Z,8.70
2022-12-26T06:36:34.828Z,8.70
2022-12-26T06:39:06.792Z,8.70
2022-12-26T06:41:38.792Z,8.60
2022-12-26T06:44:17.716Z,8.60
2022-12-26T06:46:50.316Z,8.60
2022-12-26T06:49:26.210Z,8.70
2022-12-26T06:52:00.732Z,8.80
2022-12-26T06:54:32.665Z,8.80
2022-12-26T06:57:04.590Z,8.80
2022-12-26T06:59:36.486Z,8.70
2022-12-26T07:02:11.323Z,8.60
2022-12-26T07:04:43.472Z,8.60
2022-12-26T07:07:15.522Z,8.50
2022-12-26T07:09:47.441Z,8.60
2022-12-26T07:12:21.794Z,8.70
2022-12-26T07:14:59.706Z,8.70
2022-12-26T07:17:33.386Z,8.70
2022-12-26T07:20:06.011Z,8.70
2022-12-26T07:22:38.427Z,8.60
2022-12-26T07:25:10.482Z,8.60
2022-12-26T07:27:43.072Z,8.50
2022-12-26T07:30:15.151Z,8.50
2022-12-26T07:32:47.155Z,8.50
2022-12-26T07:35:19.220Z,8.60
2022-12-26T07:37:52.003Z,8.80
2022-12-26T07:40:24.004Z,8.90
2022-12-26T07:42:55.938Z,9.00
2022-12-26T07:45:28.036Z,9.10
2022-12-26T07:48:01.318Z,9.00
2022-12-26T07:50:33.205Z,8.90
2022-12-26T07:53:05.284Z,8.70
2022-12-26T07:55:37.154Z,8.80
2022-12-26T07:58:09.140Z,8.90
2022-12-26T08:00:41.142Z,8.80
2022-12-26T08:03:13.476Z,8.70
2022-12-26T08:05:47.862Z,8.80
2022-12-26T08:08:20.646Z,8.80
2022-12-26T08:11:03.491Z,8.80
2022-12-26T08:13:35.851Z,8.90
2022-12-26T08:16:09.400Z,9.00
2022-12-26T08:18:42.036Z,9.00
2022-12-26T08:21:14.326Z,8.90
2022-12-26T08:23:48.362Z,8.90
2022-12-26T08:26:23.388Z,8.90
2022-12-26T08:28:56.901Z,8.90
2022-12-26T08:31:28.869Z,8.90
2022-12-26T08:34:00.875Z,8.90
2022-12-26T08:36:34.407Z,9.00
2022-12-26T08:39:06.494Z,9.10
2022-12-26T08:41:38.395Z,9.10
2022-12-26T08:44:29.037Z,9.20
2022-12-26T08:47:01.300Z,9.20
2022-12-26T08:49:33.228Z,9.20
2022-12-26T08:52:05.186Z,9.30
2022-12-26T08:54:37.060Z,9.30
2022-12-26T08:57:09.610Z,9.40
2022-12-26T08:59:41.828Z,9.50
2022-12-26T09:02:13.917Z,9.60
2022-12-26T09:04:46.092Z,9.70
2022-12-26T09:07:18.445Z,9.80
2022-12-26T09:09:50.380Z,9.80
2022-12-26T09:12:22.253Z,9.90
2022-12-26T09:14:54.199Z,9.90
2022-12-26T09:17:28.075Z,10.00
2022-12-26T09:20:00.137Z,10.00
2022-12-26T09:22:51.000Z,10.10
2022-12-26T09:25:25.528Z,10.00
2022-12-26T09:27:59.460Z,9.90
2022-12-26T09:30:31.756Z,10.00
2022-12-26T09:33:07.851Z,10.00
2022-12-26T09:35:41.253Z,9.90
2022-12-26T09:38:13.478Z,9.90
2022-12-26T09:41:04.283Z,9.80
2022-12-26T09:44:04.235Z,9.70
2022-12-26T09:46:44.349Z,9.70
2022-12-26T09:49:24.273Z,9.80
2022-12-26T09:52:00.830Z,9.80
2022-12-26T09:54:47.671Z,9.90
2022-12-26T09:57:36.267Z,10.00
2022-12-26T10:00:21.238Z,10.00
2022-12-26T10:02:57.115Z,10.10
2022-12-26T10:05:38.787Z,10.20
2022-12-26T10:08:40.719Z,10.20
2022-12-26T10:11:28.744Z,10.20
2022-12-26T10:14:08.556Z,10.10
2022-12-26T10:16:58.127Z,10.20
2022-12-26T10:19:54.924Z,10.10
2022-12-26T10:22:51.158Z,10.10
2022-12-26T10:25:38.798Z,10.10
2022-12-26T10:28:32.156Z,10.10
2022-12-26T10:31:12.515Z,10.20
2022-12-26T10:33:56.967Z,10.30
2022-12-26T10:36:35.316Z,10.30
2022-12-26T10:39:25.470Z,10.30
2022-12-26T10:42:03.767Z,10.30
2022-12-26T10:44:35.669Z,10.30
2022-12-26T10:47:15.883Z,10.30
2022-12-26T10:49:49.102Z,10.50
2022-12-26T10:52:26.387Z,10.60
2022-12-26T10:55:29.345Z,10.80
2022-12-26T10:57:53.225Z,11.00
2022-12-26T11:00:28.002Z,11.20
2022-12-26T11:03:07.797Z,11.00
2022-12-26T11:06:10.050Z,10.80
2022-12-26T11:08:49.958Z,10.80
2022-12-26T11:11:25.394Z,10.70
2022-12-26T11:14:03.381Z,10.70
2022-12-26T11:16:38.986Z,10.70
2022-12-26T11:19:52.726Z,10.70
2022-12-26T11:22:27.454Z,10.70
2022-12-26T11:25:08.320Z,10.80
2022-12-26T11:27:46.379Z,10.80
2022-12-26T11:30:18.589Z,10.80
2022-12-26T11:33:19.453Z,10.80
2022-12-26T11:35:57.555Z,10.70
2022-12-26T11:38:44.449Z,10.70
2022-12-26T11:41:36.896Z,10.70
2022-12-26T11:44:14.942Z,10.80
2022-12-26T11:47:06.282Z,10.90
2022-12-26T11:49:39.814Z,10.90
2022-12-26T11:52:38.106Z,11.00
2022-12-26T11:55:30.325Z,11.10
2022-12-26T11:58:06.153Z,11.20
2022-12-26T12:00:39.224Z,11.10
2022-12-26T12:03:34.489Z,11.10
2022-12-26T12:06:15.280Z,11.20
2022-12-26T12:09:11.853Z,11.20
2022-12-26T12:12:07.644Z,11.20
2022-12-26T12:15:13.002Z,11.20
2022-12-26T12:18:06.485Z,11.10
2022-12-26T12:20:52.187Z,10.90
2022-12-26T12:23:58.773Z,10.90
2022-12-26T12:26:55.808Z,10.80
2022-12-26T12:30:13.182Z,10.80
2022-12-26T12:33:00.773Z,10.90
2022-12-26T12:35:51.796Z,10.80
2022-12-26T12:38:32.353Z,10.80
2022-12-26T12:41:10.147Z,10.80
2022-12-26T12:43:51.045Z,10.70
2022-12-26T12:46:46.827Z,10.80
2022-12-26T12:49:26.951Z,10.70
2022-12-26T12:52:22.386Z,10.60
2022-12-26T12:55:16.042Z,10.50
2022-12-26T12:58:11.030Z,10.50
2022-12-26T13:01:13.840Z,10.50
2022-12-26T13:04:03.001Z,10.50
2022-12-26T13:06:52.153Z,10.40
2022-12-26T13:09:33.029Z,10.30
2022-12-26T13:12:14.852Z,10.20
2022-12-26T13:15:15.868Z,10.20
2022-12-26T13:17:56.477Z,10.20
2022-12-26T13:20:42.625Z,10.20
2022-12-26T13:24:00.769Z,10.20
2022-12-26T13:26:37.922Z,10.20
2022-12-26T13:29:20.031Z,10.20
2022-12-26T13:31:53.596Z,10.10
2022-12-26T13:34:27.059Z,10.20
2022-12-26T13:37:01.181Z,10.20
2022-12-26T13:39:37.166Z,10.20
2022-12-26T13:42:27.586Z,10.20
2022-12-26T13:45:40.221Z,10.20
2022-12-26T13:48:17.989Z,10.20
2022-12-26T13:50:55.675Z,10.20
2022-12-26T13:53:39.249Z,10.10
2022-12-26T13:56:45.873Z,10.20
2022-12-26T13:59:28.290Z,10.20
2022-12-26T14:03:16.834Z,10.30
2022-12-26T14:06:14.478Z,10.20
2022-12-26T14:08:58.548Z,10.10
2022-12-26T14:11:52.322Z,10.00
2022-12-26T14:15:03.155Z,10.10
2022-12-26T14:17:41.699Z,10.20
2022-12-26T14:20:19.670Z,10.20
2022-12-26T14:23:07.530Z,10.20
2022-12-26T14:25:50.932Z,10.30
2022-12-26T14:28:35.307Z,10.40
2022-12-26T14:31:45.457Z,10.40
2022-12-26T14:34:32.131Z,10.30
2022-12-26T14:37:10.059Z,10.30
2022-12-26T14:40:06.749Z,10.20
2022-12-26T14:43:13.905Z,10.20
2022-12-26T14:45:51.722Z,10.20
2022-12-26T14:48:23.732Z,10.10
2022-12-26T14:51:04.479Z,10.10
2022-12-26T14:53:36.909Z,10.00
2022-12-26T14:56:10.359Z,10.00
2022-12-26T14:58:49.442Z,10.00
2022-12-26T15:01:24.344Z,10.00
2022-12-26T15:04:15.185Z,10.00
2022-12-26T15:07:20.724Z,10.00
2022-12-26T15:10:22.735Z,10.00
2022-12-26T15:13:30.421Z,10.20
2022-12-26T15:16:22.017Z,10.20
2022-12-26T15:18:53.826Z,10.20
2022-12-26T15:21:44.525Z,10.20
2022-12-26T15:25:08.368Z,10.20
2022-12-26T15:28:00.339Z,10.30
2022-12-26T15:30:57.398Z,10.10
2022-12-26T15:33:40.999Z,10.00
2022-12-26T15:36:24.916Z,10.00
2022-12-26T15:38:56.818Z,10.00
2022-12-26T15:41:45.864Z,10.10
2022-12-26T15:44:30.475Z,10.10
2022-12-26T15:47:33.431Z,10.10
2022-12-26T15:50:18.579Z,10.10
2022-12-26T15:53:07.016Z,10.00
2022-12-26T15:56:06.837Z,10.00
2022-12-26T15:58:50.722Z,10.00
2022-12-26T16:01:43.694Z,10.00
2022-12-26T16:04:49.885Z,10.00
2022-12-26T16:07:46.753Z,10.00
2022-12-26T16:10:24.649Z,9.90
2022-12-26T16:13:06.354Z,9.90
2022-12-26T16:15:48.952Z,10.00
2022-12-26T16:18:26.897Z,9.90
2022-12-26T16:21:38.046Z,9.90
2022-12-26T16:24:12.739Z,9.90
2022-12-26T16:26:47.101Z,9.90
2022-12-26T16:29:21.296Z,9.80
2022-12-26T16:32:03.491Z,9.80
2022-12-26T16:34:40.011Z,9.90
2022-12-26T16:37:19.650Z,9.80
2022-12-26T16:40:18.300Z,9.80
2022-12-26T16:43:01.576Z,9.70
2022-12-26T16:45:37.206Z,9.70
2022-12-26T16:48:13.605Z,9.60
2022-12-26T16:50:50.661Z,9.50
2022-12-26T16:53:36.352Z,9.50
2022-12-26T16:56:26.895Z,9.50
2022-12-26T16:59:17.116Z,9.60
2022-12-26T17:01:58.472Z,9.60
2022-12-26T17:04:31.414Z,9.70
2022-12-26T17:07:08.350Z,9.60
2022-12-26T17:09:45.401Z,9.60
2022-12-26T17:12:28.968Z,9.60
2022-12-26T17:15:02.663Z,9.70
2022-12-26T17:17:37.519Z,9.70
2022-12-26T17:20:25.003Z,9.80
2022-12-26T17:22:58.325Z,9.80
2022-12-26T17:25:33.964Z,9.80
2022-12-26T17:28:09.248Z,9.80
2022-12-26T17:30:53.324Z,9.80
2022-12-26T17:33:29.040Z,9.70
2022-12-26T17:39:20.667Z,9.60
2022-12-26T17:41:58.094Z,9.70
2022-12-26T17:44:44.880Z,9.60
2022-12-26T17:47:20.990Z,9.70
2022-12-26T17:49:54.552Z,9.70
2022-12-26T17:52:28.890Z,9.70
2022-12-26T17:55:03.146Z,9.70
2022-12-26T17:57:35.151Z,9.70
2022-12-26T18:00:15.719Z,9.70
2022-12-26T18:02:48.332Z,9.70
2022-12-26T18:05:21.042Z,9.70
2022-12-26T18:07:53.247Z,9.70
2022-12-26T18:10:29.137Z,9.80
2022-12-26T18:13:01.752Z,9.70
2022-12-26T18:15:33.860Z,9.60
2022-12-26T18:18:05.933Z,9.50
2022-12-26T18:20:37.872Z,9.50
2022-12-26T18:23:11.111Z,9.50
2022-12-26T18:25:43.304Z,9.40
2022-12-26T18:28:17.472Z,9.40
2022-12-26T18:30:49.513Z,9.40
2022-12-26T18:33:21.467Z,9.50
2022-12-26T18:35:54.007Z,9.60
2022-12-26T18:38:25.899Z,9.60
2022-12-26T18:41:01.105Z,9.60
2022-12-26T18:43:33.204Z,9.60
2022-12-26T18:46:05.398Z,9.50
2022-12-26T18:48:37.335Z,9.50
2022-12-26T18:51:09.491Z,9.50
2022-12-26T18:53:41.573Z,9.50
2022-12-26T18:56:18.950Z,9.40
2022-12-26T18:58:57.394Z,9.40
2022-12-26T19:01:29.976Z,9.40
2022-12-26T19:04:02.044Z,9.40
2022-12-26T19:06:35.339Z,9.40
2022-12-26T19:09:08.946Z,9.30
2022-12-26T19:11:42.198Z,9.30
2022-12-26T19:14:20.149Z,9.40
2022-12-26T19:16:52.160Z,9.40
2022-12-26T19:19:26.781Z,9.50
2022-12-26T19:21:58.806Z,9.40
2022-12-26T19:24:30.795Z,9.50
2022-12-26T19:27:03.075Z,9.50
2022-12-26T19:29:35.061Z,9.50
2022-12-26T19:32:06.976Z,9.50
2022-12-26T19:34:38.938Z,9.50
2022-12-26T19:37:10.876Z,9.40
2022-12-26T19:39:42.813Z,9.50
2022-12-26T19:42:14.892Z,9.60
2022-12-26T19:44:47.996Z,9.60
2022-12-26T19:47:20.206Z,9.70
2022-12-26T19:49:52.176Z,9.50
2022-12-26T19:52:27.906Z,9.60
2022-12-26T19:55:00.892Z,9.50
2022-12-26T19:57:33.324Z,9.40
2022-12-26T20:00:06.583Z,9.30
2022-12-26T20:02:43.949Z,9.30
2022-12-26T20:05:16.124Z,9.40
2022-12-26T20:07:48.238Z,9.30
2022-12-26T20:10:20.157Z,9.40
2022-12-26T20:12:52.537Z,9.40
2022-12-26T20:15:24.436Z,9.50
2022-12-26T20:17:59.614Z,9.60
2022-12-26T20:20:31.787Z,9.50
2022-12-26T20:23:04.205Z,9.60
2022-12-26T20:25:38.679Z,9.70
2022-12-26T20:28:11.255Z,9.70
2022-12-26T20:30:43.498Z,9.70
2022-12-26T20:33:15.445Z,9.70
2022-12-26T20:35:47.363Z,9.70
2022-12-26T20:38:20.208Z,9.60
2022-12-26T20:40:52.377Z,9.50
2022-12-26T20:43:25.252Z,9.60
2022-12-26T20:45:59.761Z,9.60
2022-12-26T20:48:36.416Z,9.60
2022-12-26T20:51:11.995Z,9.40
2022-12-26T20:53:44.014Z,9.30
2022-12-26T20:56:16.137Z,9.30
2022-12-26T20:58:48.148Z,9.20
2022-12-26T21:01:21.972Z,9.20
2022-12-26T21:03:55.991Z,9.40
2022-12-26T21:06:30.744Z,9.50
2022-12-26T21:09:04.618Z,9.50
2022-12-26T21:11:39.411Z,9.50
2022-12-26T21:14:19.652Z,9.50
2022-12-26T21:16:54.559Z,9.50
2022-12-26T21:19:29.309Z,9.40
2022-12-26T21:22:01.289Z,9.30
2022-12-26T21:24:33.230Z,9.30
2022-12-26T21:27:05.281Z,9.20
2022-12-26T21:29:38.671Z,9.20
2022-12-26T21:32:11.701Z,9.10
2022-12-26T21:34:44.266Z,9.10
2022-12-26T21:37:35.213Z,9.20
2022-12-26T21:40:08.157Z,9.40
2022-12-26T21:42:40.165Z,9.50
2022-12-26T21:45:16.307Z,9.50
2022-12-26T21:47:48.246Z,9.40
2022-12-26T21:50:20.507Z,9.40
2022-12-26T21:52:52.447Z,9.30
2022-12-26T21:55:27.018Z,9.20
2022-12-26T21:58:00.958Z,9.30
2022-12-26T22:00:35.410Z,9.20
2022-12-26T22:03:25.971Z,9.20
2022-12-26T22:05:58.145Z,9.30
2022-12-26T22:08:30.071Z,9.30
2022-12-26T22:11:20.578Z,9.40
2022-12-26T22:13:52.512Z,9.40
2022-12-26T22:16:25.696Z,9.40
2022-12-26T22:18:57.642Z,9.40
2022-12-26T22:21:29.568Z,9.40
2022-12-26T22:24:01.798Z,9.30
2022-12-26T22:26:33.739Z,9.30
2022-12-26T22:29:05.664Z,9.20
2022-12-26T22:31:38.189Z,9.20
2022-12-26T22:34:13.503Z,9.20
2022-12-26T22:36:45.366Z,9.20
2022-12-26T22:39:18.044Z,9.20
2022-12-26T22:41:49.967Z,9.10
2022-12-26T22:44:23.403Z,9.10
2022-12-26T22:46:57.101Z,9.10
2022-12-26T22:49:29.397Z,9.10
2022-12-26T22:52:01.350Z,9.00
2022-12-26T22:54:33.345Z,9.10
2022-12-26T22:57:05.293Z,9.10
2022-12-26T23:00:07.122Z,9.10
2022-12-26T23:02:29.646Z,9.20
2022-12-26T23:05:02.122Z,9.20
2022-12-26T23:07:34.412Z,9.30
2022-12-26T23:10:07.736Z,9.30
2022-12-26T23:12:46.019Z,9.30
2022-12-26T23:15:22.435Z,9.20
2022-12-26T23:18:45.412Z,9.20
2022-12-26T23:21:38.958Z,9.20
2022-12-26T23:24:20.542Z,9.30
2022-12-26T23:26:53.913Z,9.20
2022-12-26T23:29:44.373Z,9.20
2022-12-26T23:32:16.356Z,9.20
2022-12-26T23:34:48.324Z,9.10
2022-12-26T23:37:20.290Z,9.10
2022-12-26T23:39:52.355Z,9.10
2022-12-26T23:42:24.574Z,9.10
2022-12-26T23:44:56.926Z,9.10
2022-12-26T23:47:29.214Z,9.10
2022-12-26T23:50:01.126Z,9.10
2022-12-26T23:52:33.545Z,9.10
2022-12-26T23:55:06.130Z,9.10
2022-12-26T23:57:38.130Z,9.00
